sensor_id;sensor_type;location;lat;lon;timestamp;pressure;altitude;pressure_sealevel;temperature;humidity
22389;BME280;11362;48.102;11.620;2023-05-07T00:02:19;95211.66;;;23.33;44.60
22389;BME280;11362;48.102;11.620;2023-05-07T00:04:44;95208.53;;;23.31;44.72
22389;BME280;11362;48.102;11.620;2023-05-07T00:07:09;95196.22;;;23.32;44.67
22389;BME280;11362;48.102;11.620;2023-05-07T00:09:35;95205.31;;;23.33;44.73
22389;BME280;11362;48.102;11.620;2023-05-07T00:12:01;95206.53;;;23.32;44.71
22389;BME280;11362;48.102;11.620;2023-05-07T00:14:26;95206.53;;;23.32;44.50
22389;BME280;11362;48.102;11.620;2023-05-07T00:16:51;95206.53;;;23.32;44.63
22389;BME280;11362;48.102;11.620;2023-05-07T00:19:17;95217.59;;;23.32;44.74
22389;BME280;11362;48.102;11.620;2023-05-07T00:21:42;95205.75;;;23.31;44.62
22389;BME280;11362;48.102;11.620;2023-05-07T00:24:07;95200.63;;;23.30;44.61
22389;BME280;11362;48.102;11.620;2023-05-07T00:26:32;95208.94;;;23.30;44.57
22389;BME280;11362;48.102;11.620;2023-05-07T00:28:58;95200.97;;;23.32;44.53
22389;BME280;11362;48.102;11.620;2023-05-07T00:31:23;95199.41;;;23.31;44.55
22389;BME280;11362;48.102;11.620;2023-05-07T00:33:48;95195.44;;;23.32;44.58
22389;BME280;11362;48.102;11.620;2023-05-07T00:36:14;95192.66;;;23.32;44.91
22389;BME280;11362;48.102;11.620;2023-05-07T00:38:39;95190.31;;;23.30;44.55
22389;BME280;11362;48.102;11.620;2023-05-07T00:41:04;95192.31;;;23.30;44.45
22389;BME280;11362;48.102;11.620;2023-05-07T00:43:29;95195.06;;;23.30;44.62
22389;BME280;11362;48.102;11.620;2023-05-07T00:45:55;95191.50;;;23.29;44.48
22389;BME280;11362;48.102;11.620;2023-05-07T00:48:20;95197.84;;;23.30;44.54
22389;BME280;11362;48.102;11.620;2023-05-07T00:50:46;95201.03;;;23.28;44.64
22389;BME280;11362;48.102;11.620;2023-05-07T00:53:11;95202.19;;;23.31;44.50
22389;BME280;11362;48.102;11.620;2023-05-07T00:55:37;95200.63;;;23.30;44.57
22389;BME280;11362;48.102;11.620;2023-05-07T00:58:02;95203.38;;;23.30;44.57
22389;BME280;11362;48.102;11.620;2023-05-07T01:00:28;95197.03;;;23.29;44.45
22389;BME280;11362;48.102;11.620;2023-05-07T01:02:53;95197.84;;;23.30;44.47
22389;BME280;11362;48.102;11.620;2023-05-07T01:05:20;95201.03;;;23.28;44.34
22389;BME280;11362;48.102;11.620;2023-05-07T01:07:46;95197.03;;;23.29;44.49
22389;BME280;11362;48.102;11.620;2023-05-07T01:10:12;95196.28;;;23.29;44.25
22389;BME280;11362;48.102;11.620;2023-05-07T01:12:39;95193.13;;;23.27;44.33
22389;BME280;11362;48.102;11.620;2023-05-07T01:15:06;95197.09;;;23.26;44.25
22389;BME280;11362;48.102;11.620;2023-05-07T01:17:36;95199.47;;;23.27;44.47
22389;BME280;11362;48.102;11.620;2023-05-07T01:20:02;95203.44;;;23.26;44.34
22389;BME280;11362;48.102;11.620;2023-05-07T01:22:33;95203.78;;;23.28;44.43
22389;BME280;11362;48.102;11.620;2023-05-07T01:24:58;95207.78;;;23.27;44.41
22389;BME280;11362;48.102;11.620;2023-05-07T01:27:24;95195.88;;;23.27;44.30
22389;BME280;11362;48.102;11.620;2023-05-07T01:29:49;95189.56;;;23.26;44.22
22389;BME280;11362;48.102;11.620;2023-05-07T01:32:17;95186.81;;;23.26;44.28
22389;BME280;11362;48.102;11.620;2023-05-07T01:34:44;95191.56;;;23.26;44.35
22389;BME280;11362;48.102;11.620;2023-05-07T01:37:11;95186.81;;;23.26;44.35
22389;BME280;11362;48.102;11.620;2023-05-07T01:39:38;95178.13;;;23.24;44.31
22389;BME280;11362;48.102;11.620;2023-05-07T01:42:04;95186.00;;;23.26;44.21
22389;BME280;11362;48.102;11.620;2023-05-07T01:44:30;95178.91;;;23.25;44.39
22389;BME280;11362;48.102;11.620;2023-05-07T01:46:56;95178.91;;;23.25;44.38
22389;BME280;11362;48.102;11.620;2023-05-07T01:49:22;95182.88;;;23.24;44.32
22389;BME280;11362;48.102;11.620;2023-05-07T01:51:47;95188.00;;;23.25;44.18
22389;BME280;11362;48.102;11.620;2023-05-07T01:54:13;95184.44;;;23.25;44.23
22389;BME280;11362;48.102;11.620;2023-05-07T01:56:38;95184.44;;;23.25;44.44
22389;BME280;11362;48.102;11.620;2023-05-07T01:59:04;95187.22;;;23.25;44.24
22389;BME280;11362;48.102;11.620;2023-05-07T02:01:29;95188.78;;;23.26;44.13
22389;BME280;11362;48.102;11.620;2023-05-07T02:03:54;95186.84;;;23.23;44.21
22389;BME280;11362;48.102;11.620;2023-05-07T02:06:20;95181.66;;;23.25;44.21
22389;BME280;11362;48.102;11.620;2023-05-07T02:08:45;95184.44;;;23.25;44.19
22389;BME280;11362;48.102;11.620;2023-05-07T02:11:11;95191.56;;;23.26;44.16
22389;BME280;11362;48.102;11.620;2023-05-07T02:13:36;95190.78;;;23.25;44.28
22389;BME280;11362;48.102;11.620;2023-05-07T02:16:02;95190.34;;;23.27;44.18
22389;BME280;11362;48.102;11.620;2023-05-07T02:18:27;95192.34;;;23.26;44.41
22389;BME280;11362;48.102;11.620;2023-05-07T02:20:53;95188.78;;;23.26;44.19
22389;BME280;11362;48.102;11.620;2023-05-07T02:23:18;95188.78;;;23.26;44.28
22389;BME280;11362;48.102;11.620;2023-05-07T02:25:43;95186.00;;;23.26;44.07
22389;BME280;11362;48.102;11.620;2023-05-07T02:28:09;95195.13;;;23.26;44.48
22389;BME280;11362;48.102;11.620;2023-05-07T02:30:35;95193.13;;;23.27;44.17
22389;BME280;11362;48.102;11.620;2023-05-07T02:33:01;95192.34;;;23.26;44.09
22389;BME280;11362;48.102;11.620;2023-05-07T02:35:26;95194.31;;;23.26;44.08
22389;BME280;11362;48.102;11.620;2023-05-07T02:37:52;95196.69;;;23.27;44.13
22389;BME280;11362;48.102;11.620;2023-05-07T02:40:17;95182.47;;;23.25;44.06
22389;BME280;11362;48.102;11.620;2023-05-07T02:42:43;95187.63;;;23.23;44.18
22389;BME280;11362;48.102;11.620;2023-05-07T02:45:08;95182.88;;;23.24;44.45
22389;BME280;11362;48.102;11.620;2023-05-07T02:47:34;95180.09;;;23.24;44.36
22389;BME280;11362;48.102;11.620;2023-05-07T02:49:59;95184.44;;;23.25;43.96
22389;BME280;11362;48.102;11.620;2023-05-07T02:52:24;95188.41;;;23.24;44.20
22389;BME280;11362;48.102;11.620;2023-05-07T02:54:50;95199.50;;;23.24;44.15
22389;BME280;11362;48.102;11.620;2023-05-07T02:57:15;95193.97;;;23.24;44.08
22389;BME280;11362;48.102;11.620;2023-05-07T02:59:41;95188.41;;;23.24;44.11
22389;BME280;11362;48.102;11.620;2023-05-07T03:02:07;95187.25;;;23.21;44.07
22389;BME280;11362;48.102;11.620;2023-05-07T03:04:32;95186.84;;;23.23;43.99
22389;BME280;11362;48.102;11.620;2023-05-07T03:06:57;95186.84;;;23.23;44.11
22389;BME280;11362;48.102;11.620;2023-05-07T03:09:22;95185.66;;;23.24;43.99
22389;BME280;11362;48.102;11.620;2023-05-07T03:11:48;95172.19;;;23.22;44.07
22389;BME280;11362;48.102;11.620;2023-05-07T03:14:13;95180.09;;;23.24;44.02
22389;BME280;11362;48.102;11.620;2023-05-07T03:16:39;95180.50;;;23.22;44.09
22389;BME280;11362;48.102;11.620;2023-05-07T03:19:04;95174.22;;;23.22;44.05
22389;BME280;11362;48.102;11.620;2023-05-07T03:21:30;95180.94;;;23.21;44.05
22389;BME280;11362;48.102;11.620;2023-05-07T03:23:55;95179.75;;;23.22;43.97
22389;BME280;11362;48.102;11.620;2023-05-07T03:26:20;95176.97;;;23.22;43.75
22389;BME280;11362;48.102;11.620;2023-05-07T03:28:46;95183.28;;;23.22;43.99
22389;BME280;11362;48.102;11.620;2023-05-07T03:31:11;95180.16;;;23.20;44.08
22389;BME280;11362;48.102;11.620;2023-05-07T03:33:49;95177.75;;;23.22;44.11
22389;BME280;11362;48.102;11.620;2023-05-07T03:36:14;95173.41;;;23.21;44.04
22389;BME280;11362;48.102;11.620;2023-05-07T03:38:40;95172.63;;;23.21;43.87
22389;BME280;11362;48.102;11.620;2023-05-07T03:41:05;95170.63;;;23.21;43.99
22389;BME280;11362;48.102;11.620;2023-05-07T03:43:30;95170.63;;;23.21;43.92
22389;BME280;11362;48.102;11.620;2023-05-07T03:45:56;95174.97;;;23.22;43.93
22389;BME280;11362;48.102;11.620;2023-05-07T03:48:21;95178.94;;;23.21;44.25
22389;BME280;11362;48.102;11.620;2023-05-07T03:50:46;95182.94;;;23.20;44.01
22389;BME280;11362;48.102;11.620;2023-05-07T03:53:11;95182.53;;;23.22;44.02
22389;BME280;11362;48.102;11.620;2023-05-07T03:55:37;95187.25;;;23.21;43.99
22389;BME280;11362;48.102;11.620;2023-05-07T03:58:02;95180.94;;;23.21;44.09
22389;BME280;11362;48.102;11.620;2023-05-07T04:00:27;95177.38;;;23.20;43.92
22389;BME280;11362;48.102;11.620;2023-05-07T04:02:52;95181.38;;;23.19;43.87
22389;BME280;11362;48.102;11.620;2023-05-07T04:05:18;95182.94;;;23.20;43.88
22389;BME280;11362;48.102;11.620;2023-05-07T04:07:43;95192.03;;;23.21;43.73
22389;BME280;11362;48.102;11.620;2023-05-07T04:10:09;95193.22;;;23.20;44.14
22389;BME280;11362;48.102;11.620;2023-05-07T04:12:34;95196.78;;;23.20;43.90
22389;BME280;11362;48.102;11.620;2023-05-07T04:14:59;95188.88;;;23.19;43.96
22389;BME280;11362;48.102;11.620;2023-05-07T04:17:24;95192.44;;;23.19;43.87
22389;BME280;11362;48.102;11.620;2023-05-07T04:19:50;95198.00;;;23.19;43.73
22389;BME280;11362;48.102;11.620;2023-05-07T04:22:15;95200.34;;;23.21;43.65
22389;BME280;11362;48.102;11.620;2023-05-07T04:24:41;95199.56;;;23.20;43.92
22389;BME280;11362;48.102;11.620;2023-05-07T04:27:06;95207.88;;;23.20;43.79
22389;BME280;11362;48.102;11.620;2023-05-07T04:29:31;95208.28;;;23.19;43.84
22389;BME280;11362;48.102;11.620;2023-05-07T04:31:56;95208.28;;;23.19;44.00
22389;BME280;11362;48.102;11.620;2023-05-07T04:34:22;95217.75;;;23.21;43.81
22389;BME280;11362;48.102;11.620;2023-05-07T04:36:47;95210.63;;;23.20;43.86
22389;BME280;11362;48.102;11.620;2023-05-07T04:39:12;95213.41;;;23.20;43.76
22389;BME280;11362;48.102;11.620;2023-05-07T04:41:37;95210.63;;;23.20;43.84
22389;BME280;11362;48.102;11.620;2023-05-07T04:44:03;95211.44;;;23.21;43.73
22389;BME280;11362;48.102;11.620;2023-05-07T04:46:28;95208.28;;;23.19;43.81
22389;BME280;11362;48.102;11.620;2023-05-07T04:48:53;95208.66;;;23.21;43.85
22389;BME280;11362;48.102;11.620;2023-05-07T04:51:19;95211.44;;;23.21;43.80
22389;BME280;11362;48.102;11.620;2023-05-07T04:53:44;95216.97;;;23.21;43.83
22389;BME280;11362;48.102;11.620;2023-05-07T04:56:09;95211.44;;;23.21;43.91
22389;BME280;11362;48.102;11.620;2023-05-07T04:58:35;95214.22;;;23.21;43.61
22389;BME280;11362;48.102;11.620;2023-05-07T05:01:00;95218.53;;;23.22;43.83
22389;BME280;11362;48.102;11.620;2023-05-07T05:03:25;95214.22;;;23.21;43.79
22389;BME280;11362;48.102;11.620;2023-05-07T05:05:51;95218.53;;;23.22;43.88
22389;BME280;11362;48.102;11.620;2023-05-07T05:08:16;95221.31;;;23.22;43.79
22389;BME280;11362;48.102;11.620;2023-05-07T05:10:41;95230.41;;;23.22;43.82
22389;BME280;11362;48.102;11.620;2023-05-07T05:13:07;95233.16;;;23.22;43.72
22389;BME280;11362;48.102;11.620;2023-05-07T05:15:32;95228.06;;;23.21;43.84
22389;BME280;11362;48.102;11.620;2023-05-07T05:17:57;95226.84;;;23.22;43.67
22389;BME280;11362;48.102;11.620;2023-05-07T05:20:23;95213.78;;;23.22;43.73
22389;BME280;11362;48.102;11.620;2023-05-07T05:22:48;95213.00;;;23.22;43.67
22389;BME280;11362;48.102;11.620;2023-05-07T05:25:13;95214.56;;;23.23;43.83
22389;BME280;11362;48.102;11.620;2023-05-07T05:27:39;95216.13;;;23.24;43.62
22389;BME280;11362;48.102;11.620;2023-05-07T05:30:04;95218.91;;;23.24;43.70
22389;BME280;11362;48.102;11.620;2023-05-07T05:32:30;95218.50;;;23.25;43.74
22389;BME280;11362;48.102;11.620;2023-05-07T05:34:55;95217.69;;;23.25;43.73
22389;BME280;11362;48.102;11.620;2023-05-07T05:37:20;95227.59;;;23.26;43.67
22389;BME280;11362;48.102;11.620;2023-05-07T05:39:45;95215.28;;;23.27;43.67
22389;BME280;11362;48.102;11.620;2023-05-07T05:42:11;95224.81;;;23.26;43.59
22389;BME280;11362;48.102;11.620;2023-05-07T05:44:36;95222.03;;;23.26;43.70
22389;BME280;11362;48.102;11.620;2023-05-07T05:47:02;95218.50;;;23.25;43.75
22389;BME280;11362;48.102;11.620;2023-05-07T05:49:28;95215.28;;;23.27;43.63
22389;BME280;11362;48.102;11.620;2023-05-07T05:51:53;95218.84;;;23.27;43.81
22389;BME280;11362;48.102;11.620;2023-05-07T05:54:18;95214.13;;;23.28;43.68
22389;BME280;11362;48.102;11.620;2023-05-07T05:56:44;95220.44;;;23.28;43.66
22389;BME280;11362;48.102;11.620;2023-05-07T05:59:09;95216.88;;;23.28;43.63
22389;BME280;11362;48.102;11.620;2023-05-07T06:01:35;95216.88;;;23.28;43.71
22389;BME280;11362;48.102;11.620;2023-05-07T06:04:00;95212.09;;;23.28;43.67
22389;BME280;11362;48.102;11.620;2023-05-07T06:06:26;95216.09;;;23.27;43.89
22389;BME280;11362;48.102;11.620;2023-05-07T06:08:51;95210.91;;;23.29;43.42
22389;BME280;11362;48.102;11.620;2023-05-07T06:11:16;95212.91;;;23.29;43.63
22389;BME280;11362;48.102;11.620;2023-05-07T06:13:42;95209.34;;;23.28;43.75
22389;BME280;11362;48.102;11.620;2023-05-07T06:16:07;95206.94;;;23.30;43.55
22389;BME280;11362;48.102;11.620;2023-05-07T06:18:32;95225.56;;;23.30;43.64
22389;BME280;11362;48.102;11.620;2023-05-07T06:20:58;95214.84;;;23.32;43.72
22389;BME280;11362;48.102;11.620;2023-05-07T06:23:23;95217.19;;;23.33;43.84
22389;BME280;11362;48.102;11.620;2023-05-07T06:25:49;95219.13;;;23.36;44.17
22389;BME280;11362;48.102;11.620;2023-05-07T06:28:14;95220.28;;;23.38;44.27
22389;BME280;11362;48.102;11.620;2023-05-07T06:30:40;95218.31;;;23.39;44.73
22389;BME280;11362;48.102;11.620;2023-05-07T06:33:05;95217.09;;;23.40;44.55
22389;BME280;11362;48.102;11.620;2023-05-07T06:35:30;95220.22;;;23.42;44.60
22389;BME280;11362;48.102;11.620;2023-05-07T06:37:55;95218.25;;;23.42;44.91
22389;BME280;11362;48.102;11.620;2023-05-07T06:40:21;95228.53;;;23.42;44.82
22389;BME280;11362;48.102;11.620;2023-05-07T06:42:46;95230.91;;;23.43;44.90
22389;BME280;11362;48.102;11.620;2023-05-07T06:45:11;95215.84;;;23.44;45.05
22389;BME280;11362;48.102;11.620;2023-05-07T06:47:37;95222.59;;;23.43;45.01
22389;BME280;11362;48.102;11.620;2023-05-07T06:50:02;95223.81;;;23.42;44.92
22389;BME280;11362;48.102;11.620;2023-05-07T06:52:27;95222.25;;;23.42;44.90
22389;BME280;11362;48.102;11.620;2023-05-07T06:54:53;95243.56;;;23.44;44.85
22389;BME280;11362;48.102;11.620;2023-05-07T06:57:18;95236.59;;;23.33;43.73
22389;BME280;11362;48.102;11.620;2023-05-07T06:59:43;95232.81;;;23.20;43.89
22389;BME280;11362;48.102;11.620;2023-05-07T07:02:08;95237.63;;;23.13;43.80
22389;BME280;11362;48.102;11.620;2023-05-07T07:04:34;95248.75;;;23.09;43.78
22389;BME280;11362;48.102;11.620;2023-05-07T07:06:59;95236.88;;;23.09;43.78
22389;BME280;11362;48.102;11.620;2023-05-07T07:09:24;95241.66;;;23.05;44.04
22389;BME280;11362;48.102;11.620;2023-05-07T07:11:49;95236.88;;;23.09;43.84
22389;BME280;11362;48.102;11.620;2023-05-07T07:14:15;95249.16;;;23.08;43.80
22389;BME280;11362;48.102;11.620;2023-05-07T07:16:40;95238.50;;;23.06;43.93
22389;BME280;11362;48.102;11.620;2023-05-07T07:19:05;95245.19;;;23.09;44.08
22389;BME280;11362;48.102;11.620;2023-05-07T07:21:30;95249.91;;;23.12;43.92
22389;BME280;11362;48.102;11.620;2023-05-07T07:23:56;95237.25;;;23.11;43.92
22389;BME280;11362;48.102;11.620;2023-05-07T07:26:21;95237.63;;;23.16;44.15
22389;BME280;11362;48.102;11.620;2023-05-07T07:28:46;95241.97;;;23.14;44.48
22389;BME280;11362;48.102;11.620;2023-05-07T07:31:12;95239.97;;;23.18;44.21
22389;BME280;11362;48.102;11.620;2023-05-07T07:33:37;95245.13;;;23.16;43.97
22389;BME280;11362;48.102;11.620;2023-05-07T07:36:04;95239.97;;;23.14;44.05
22389;BME280;11362;48.102;11.620;2023-05-07T07:38:30;95253.44;;;23.16;44.07
22389;BME280;11362;48.102;11.620;2023-05-07T07:40:55;95247.47;;;23.21;43.91
22389;BME280;11362;48.102;11.620;2023-05-07T07:43:20;95246.31;;;23.18;43.96
22389;BME280;11362;48.102;11.620;2023-05-07T07:45:46;95247.06;;;23.19;43.75
22389;BME280;11362;48.102;11.620;2023-05-07T07:48:11;95248.63;;;23.20;44.05
22389;BME280;11362;48.102;11.620;2023-05-07T07:50:36;95251.78;;;23.22;43.88
22389;BME280;11362;48.102;11.620;2023-05-07T07:53:02;95250.59;;;23.23;43.91
22389;BME280;11362;48.102;11.620;2023-05-07T07:55:28;95252.16;;;23.24;43.95
22389;BME280;11362;48.102;11.620;2023-05-07T07:57:53;95251.31;;;23.27;43.54
22389;BME280;11362;48.102;11.620;2023-05-07T08:00:18;95246.22;;;23.25;43.60
22389;BME280;11362;48.102;11.620;2023-05-07T08:02:44;95252.53;;;23.26;43.33
22389;BME280;11362;48.102;11.620;2023-05-07T08:05:09;95247.78;;;23.26;43.54
22389;BME280;11362;48.102;11.620;2023-05-07T08:07:34;95246.16;;;23.29;43.64
22389;BME280;11362;48.102;11.620;2023-05-07T08:10:00;95243.75;;;23.31;43.61
22389;BME280;11362;48.102;11.620;2023-05-07T08:12:25;95242.97;;;23.30;43.51
22389;BME280;11362;48.102;11.620;2023-05-07T08:14:50;95248.50;;;23.30;43.43
22389;BME280;11362;48.102;11.620;2023-05-07T08:17:16;95250.09;;;23.31;43.34
22389;BME280;11362;48.102;11.620;2023-05-07T08:19:42;95245.31;;;23.32;43.38
22389;BME280;11362;48.102;11.620;2023-05-07T08:22:09;95254.03;;;23.30;42.97
22389;BME280;11362;48.102;11.620;2023-05-07T08:24:34;95253.28;;;23.30;43.22
22389;BME280;11362;48.102;11.620;2023-05-07T08:26:59;95256.44;;;23.28;43.21
22389;BME280;11362;48.102;11.620;2023-05-07T08:29:25;95256.03;;;23.30;43.13
22389;BME280;11362;48.102;11.620;2023-05-07T08:31:50;95252.44;;;23.33;42.90
22389;BME280;11362;48.102;11.620;2023-05-07T08:34:15;95257.22;;;23.32;42.95
22389;BME280;11362;48.102;11.620;2023-05-07T08:36:41;95260.75;;;23.33;42.75
22389;BME280;11362;48.102;11.620;2023-05-07T08:39:06;95258.38;;;23.35;42.93
22389;BME280;11362;48.102;11.620;2023-05-07T08:41:31;95255.94;;;23.37;42.82
22389;BME280;11362;48.102;11.620;2023-05-07T08:43:58;95261.09;;;23.38;42.91
22389;BME280;11362;48.102;11.620;2023-05-07T08:46:25;95260.34;;;23.34;42.96
22389;BME280;11362;48.102;11.620;2023-05-07T08:48:51;95258.72;;;23.37;43.08
22389;BME280;11362;48.102;11.620;2023-05-07T08:51:18;95261.84;;;23.38;42.81
22389;BME280;11362;48.102;11.620;2023-05-07T08:53:45;95261.09;;;23.38;43.00
22389;BME280;11362;48.102;11.620;2023-05-07T08:56:11;95254.75;;;23.38;42.91
22389;BME280;11362;48.102;11.620;2023-05-07T08:58:37;95262.69;;;23.36;43.01
22389;BME280;11362;48.102;11.620;2023-05-07T09:01:07;95257.16;;;23.36;42.79
22389;BME280;11362;48.102;11.620;2023-05-07T09:03:32;95265.47;;;23.36;42.65
22389;BME280;11362;48.102;11.620;2023-05-07T09:05:57;95260.69;;;23.36;42.83
22389;BME280;11362;48.102;11.620;2023-05-07T09:08:27;95265.84;;;23.38;42.62
22389;BME280;11362;48.102;11.620;2023-05-07T09:10:52;95261.84;;;23.38;42.71
22389;BME280;11362;48.102;11.620;2023-05-07T09:13:18;95261.53;;;23.33;42.84
22389;BME280;11362;48.102;11.620;2023-05-07T09:15:43;95263.47;;;23.36;42.70
22389;BME280;11362;48.102;11.620;2023-05-07T09:18:09;95257.88;;;23.39;42.67
22389;BME280;11362;48.102;11.620;2023-05-07T09:20:36;95265.84;;;23.38;42.61
22389;BME280;11362;48.102;11.620;2023-05-07T09:23:01;95257.16;;;23.36;42.18
22389;BME280;11362;48.102;11.620;2023-05-07T09:25:32;95250.06;;;23.35;42.34
22389;BME280;11362;48.102;11.620;2023-05-07T09:27:59;95254.75;;;23.38;42.13
22389;BME280;11362;48.102;11.620;2023-05-07T09:30:31;95250.78;;;23.38;41.89
22389;BME280;11362;48.102;11.620;2023-05-07T09:33:02;95247.22;;;23.38;41.92
22389;BME280;11362;48.102;11.620;2023-05-07T09:35:29;95256.31;;;23.38;42.09
22389;BME280;11362;48.102;11.620;2023-05-07T09:37:56;95251.13;;;23.40;42.03
22389;BME280;11362;48.102;11.620;2023-05-07T09:40:24;95246.38;;;23.41;42.04
22389;BME280;11362;48.102;11.620;2023-05-07T09:42:50;95247.59;;;23.40;42.27
22389;BME280;11362;48.102;11.620;2023-05-07T09:45:21;95245.13;;;23.45;42.28
22389;BME280;11362;48.102;11.620;2023-05-07T09:47:48;95251.44;;;23.49;41.81
22389;BME280;11362;48.102;11.620;2023-05-07T09:50:15;95238.81;;;23.45;41.78
22389;BME280;11362;48.102;11.620;2023-05-07T09:52:42;95246.69;;;23.46;41.59
22389;BME280;11362;48.102;11.620;2023-05-07T09:55:08;95245.94;;;23.46;41.35
22389;BME280;11362;48.102;11.620;2023-05-07T09:57:36;95238.03;;;23.44;41.22
22389;BME280;11362;48.102;11.620;2023-05-07T10:00:02;95237.22;;;23.44;41.17
22389;BME280;11362;48.102;11.620;2023-05-07T10:02:30;95249.06;;;23.48;41.52
22389;BME280;11362;48.102;11.620;2023-05-07T10:04:56;95239.53;;;23.49;41.53
22389;BME280;11362;48.102;11.620;2023-05-07T10:07:22;95240.69;;;23.51;41.41
22389;BME280;11362;48.102;11.620;2023-05-07T10:09:48;95243.47;;;23.51;41.26
22389;BME280;11362;48.102;11.620;2023-05-07T10:12:13;95241.06;;;23.53;41.55
22389;BME280;11362;48.102;11.620;2023-05-07T10:14:39;95249.75;;;23.55;41.86
22389;BME280;11362;48.102;11.620;2023-05-07T10:17:05;95252.16;;;23.53;41.49
22389;BME280;11362;48.102;11.620;2023-05-07T10:19:32;95247.44;;;23.50;41.28
22389;BME280;11362;48.102;11.620;2023-05-07T10:22:02;95241.53;;;23.48;40.81
22389;BME280;11362;48.102;11.620;2023-05-07T10:24:32;95240.38;;;23.46;40.82
22389;BME280;11362;48.102;11.620;2023-05-07T10:26:59;95245.50;;;23.47;41.09
22389;BME280;11362;48.102;11.620;2023-05-07T10:32:52;95239.31;;;23.37;40.41
22389;BME280;11362;48.102;11.620;2023-05-07T10:35:24;95245.69;;;23.33;40.03
22389;BME280;11362;48.102;11.620;2023-05-07T10:37:51;95240.53;;;23.36;40.21
22389;BME280;11362;48.102;11.620;2023-05-07T10:40:17;95246.84;;;23.36;40.24
22389;BME280;11362;48.102;11.620;2023-05-07T10:42:59;95245.22;;;23.38;40.27
22389;BME280;11362;48.102;11.620;2023-05-07T10:45:25;95246.75;;;23.43;40.49
22389;BME280;11362;48.102;11.620;2023-05-07T10:48:13;95246.69;;;23.46;40.27
22389;BME280;11362;48.102;11.620;2023-05-07T10:50:40;95243.53;;;23.48;40.51
22389;BME280;11362;48.102;11.620;2023-05-07T10:55:48;95246.69;;;23.46;40.18
22389;BME280;11362;48.102;11.620;2023-05-07T10:58:23;95247.50;;;23.47;39.58
22389;BME280;11362;48.102;11.620;2023-05-07T11:00:48;95241.53;;;23.48;39.89
22389;BME280;11362;48.102;11.620;2023-05-07T11:03:14;95243.88;;;23.50;39.82
22389;BME280;11362;48.102;11.620;2023-05-07T11:05:40;95248.66;;;23.49;39.96
22389;BME280;11362;48.102;11.620;2023-05-07T11:08:06;95247.53;;;23.43;39.63
22389;BME280;11362;48.102;11.620;2023-05-07T11:13:17;95247.53;;;23.43;39.95
22389;BME280;11362;48.102;11.620;2023-05-07T11:15:47;95240.44;;;23.42;40.01
22389;BME280;11362;48.102;11.620;2023-05-07T11:18:14;95247.59;;;23.40;39.39
22389;BME280;11362;48.102;11.620;2023-05-07T11:26:07;95244.41;;;23.42;39.29
22389;BME280;11362;48.102;11.620;2023-05-07T11:28:52;95242.78;;;23.44;39.61
22389;BME280;11362;48.102;11.620;2023-05-07T11:31:21;95236.06;;;23.45;39.78
22389;BME280;11362;48.102;11.620;2023-05-07T11:33:47;95231.28;;;23.45;40.01
22389;BME280;11362;48.102;11.620;2023-05-07T11:36:12;95227.28;;;23.46;40.02
22389;BME280;11362;48.102;11.620;2023-05-07T11:38:38;95224.53;;;23.46;40.23
22389;BME280;11362;48.102;11.620;2023-05-07T11:41:03;95224.91;;;23.48;40.41
22389;BME280;11362;48.102;11.620;2023-05-07T11:43:28;95229.25;;;23.49;40.68
22389;BME280;11362;48.102;11.620;2023-05-07T11:45:54;95226.09;;;23.47;40.45
22389;BME280;11362;48.102;11.620;2023-05-07T11:48:21;95219.81;;;23.43;40.61
22389;BME280;11362;48.102;11.620;2023-05-07T11:51:02;95222.13;;;23.48;40.84
22389;BME280;11362;48.102;11.620;2023-05-07T11:53:35;95226.09;;;23.47;40.82
22389;BME280;11362;48.102;11.620;2023-05-07T11:58:33;95225.00;;;23.42;41.04
22389;BME280;11362;48.102;11.620;2023-05-07T12:00:59;95230.50;;;23.45;41.22
22389;BME280;11362;48.102;11.620;2023-05-07T12:03:24;95226.94;;;23.44;41.31
22389;BME280;11362;48.102;11.620;2023-05-07T12:05:49;95222.19;;;23.45;41.63
22389;BME280;11362;48.102;11.620;2023-05-07T12:08:15;95226.88;;;23.48;41.47
22389;BME280;11362;48.102;11.620;2023-05-07T12:10:44;95224.53;;;23.46;41.73
22389;BME280;11362;48.102;11.620;2023-05-07T12:13:21;95226.94;;;23.44;41.61
22389;BME280;11362;48.102;11.620;2023-05-07T12:15:50;95216.25;;;23.43;41.82
22389;BME280;11362;48.102;11.620;2023-05-07T12:18:16;95216.66;;;23.45;41.45
22389;BME280;11362;48.102;11.620;2023-05-07T12:20:41;95215.44;;;23.46;41.66
22389;BME280;11362;48.102;11.620;2023-05-07T12:23:07;95213.81;;;23.48;41.68
22389;BME280;11362;48.102;11.620;2023-05-07T12:25:36;95218.16;;;23.49;41.67
22389;BME280;11362;48.102;11.620;2023-05-07T12:28:02;95216.59;;;23.48;41.83
22389;BME280;11362;48.102;11.620;2023-05-07T12:30:28;95213.44;;;23.46;41.74
22389;BME280;11362;48.102;11.620;2023-05-07T12:32:54;95213.06;;;23.44;41.53
22389;BME280;11362;48.102;11.620;2023-05-07T12:35:37;95200.84;;;23.42;41.59
22389;BME280;11362;48.102;11.620;2023-05-07T12:38:02;95202.00;;;23.44;41.55
22389;BME280;11362;48.102;11.620;2023-05-07T12:40:36;95202.00;;;23.44;41.53
22389;BME280;11362;48.102;11.620;2023-05-07T12:43:02;95199.56;;;23.46;41.43
22389;BME280;11362;48.102;11.620;2023-05-07T12:45:27;95200.78;;;23.45;41.25
22389;BME280;11362;48.102;11.620;2023-05-07T12:47:52;95192.88;;;23.44;41.32
22389;BME280;11362;48.102;11.620;2023-05-07T12:50:18;95194.06;;;23.43;41.22
22389;BME280;11362;48.102;11.620;2023-05-07T12:52:52;95190.06;;;23.47;41.31
22389;BME280;11362;48.102;11.620;2023-05-07T12:55:18;95191.25;;;23.46;41.52
22389;BME280;11362;48.102;11.620;2023-05-07T12:57:47;95186.16;;;23.45;41.39
22389;BME280;11362;48.102;11.620;2023-05-07T13:00:13;95185.34;;;23.44;41.62
22389;BME280;11362;48.102;11.620;2023-05-07T13:02:40;95190.50;;;23.46;41.48